McConnell AFB, Kansas
Current Conditions -  °F | °C
As of 7:54 PM on Wednesday 22 Oct 2014 (Local Time) from KWLD Reporting Station
Scattered Clouds Scattered Clouds  
Wind Chill: 69°   Ceiling: Unl
Heat Index: 69°   Visibility: 10mi
Dew Point: 58°   Wind: 6mph
Humidity: 68%   Direction: 150°SSE
Pressure: 30.08"   Gusts: NA
Location:  37.38°N, 97.15°W
Report Text: KWLD 230054Z AUTO 15005KT 10SM FEW085 SCT120 21/14 A3008 RMK AO2 SLP179 T02060144
Loading
Personal Weather Stations






























Interactive Weather Map
Tropical Storm Tracking
New forecast layout! Learn more

10-Day Weather Forecast

Advertisements
Track Severe Weather on mobile